Time;durP1;ratioP1;P1;durP2;ratioP2;P2;SDS_P1;SDS_P2;PMS_P1;PMS_P2;Temp;Humidity;BMP_temperature;BMP_pressure;BME280_temperature;BME280_humidity;BME280_pressure;Samples;Min_cycle;Max_cycle;Signal;HPM_P1;HPM_P2
2024/01/12 00:00:33;;;;;;;;;;;;;;;17.37;59.66;99033.69;2088474;28;19929;-67
2024/01/12 00:01:34;;;;;;;;;;;;;;;17.35;59.70;99033.88;2083040;28;19941;-67
2024/01/12 00:02:35;;;;;;;;;;;;;;;17.34;59.89;99031.38;2086546;28;19936;-67
2024/01/12 00:03:36;;;;;;;;;;;;;;;17.32;59.75;99034.25;2085185;28;19936;-67
2024/01/12 00:04:38;;;;;;;;;;;;;;;17.30;59.74;99040.81;2087838;28;19950;-67
2024/01/12 00:05:38;;;;;;;;;;;;;;;17.31;59.73;99037.94;2085162;28;20434;-68
2024/01/12 00:06:39;;;;;;;;;;;;;;;17.29;59.99;99029.25;2087134;28;20042;-67
2024/01/12 00:07:40;;;;;;;;;;;;;;;17.29;60.00;99031.94;2085418;28;19936;-67
2024/01/12 00:08:41;;;;;;;;;;;;;;;17.28;59.85;99037.50;2085634;28;20350;-67
2024/01/12 00:09:43;;;;;;;;;;;;;;;17.28;59.97;99040.19;2088569;28;19932;-68
2024/01/12 00:10:44;;;;;;;;;;;;;;;17.26;59.95;99039.53;2088985;28;19932;-67
2024/01/12 00:11:44;;;;;;;;;;;;;;;17.25;59.76;99040.56;2087920;28;20543;-67
2024/01/12 00:12:46;;;;;;;;;;;;;;;17.25;59.97;99044.06;2086243;28;19925;-67
2024/01/12 00:13:49;;;;;;;;;;;;;;;17.24;59.80;99041.56;2085390;28;19935;-67
2024/01/12 00:14:51;;;;;;;;;;;;;;;17.21;60.07;99040.06;2087089;28;19939;-67
2024/01/12 00:15:51;;;;;;;;;;;;;;;17.20;60.10;99041.09;2088681;28;19929;-67
2024/01/12 00:16:53;;;;;;;;;;;;;;;17.20;59.96;99035.75;2087216;28;20518;-67
2024/01/12 00:17:54;;;;;;;;;;;;;;;17.19;59.86;99037.59;2084807;28;20350;-68
2024/01/12 00:18:55;;;;;;;;;;;;;;;17.18;59.98;99035.91;2087919;28;20031;-69
2024/01/12 00:19:56;;;;;;;;;;;;;;;17.18;59.94;99035.09;2083492;28;21303;-67
2024/01/12 00:20:57;;;;;;;;;;;;;;;17.15;60.13;99038.13;2088490;28;20466;-67
2024/01/12 00:21:58;;;;;;;;;;;;;;;17.12;59.93;99028.59;2091451;28;19932;-67
2024/01/12 00:22:59;;;;;;;;;;;;;;;17.14;59.77;99031.94;2087546;28;19979;-67
2024/01/12 00:24:00;;;;;;;;;;;;;;;17.13;59.90;99024.94;2082416;28;19960;-67
2024/01/12 00:25:02;;;;;;;;;;;;;;;17.11;59.96;99029.63;2086168;28;20031;-67
2024/01/12 00:26:02;;;;;;;;;;;;;;;17.11;59.80;99032.31;2087315;28;19932;-67
2024/01/12 00:27:04;;;;;;;;;;;;;;;17.09;60.12;99028.97;2081325;28;19925;-67
2024/01/12 00:28:05;;;;;;;;;;;;;;;17.10;60.02;99033.31;2085556;28;19978;-67
2024/01/12 00:29:08;;;;;;;;;;;;;;;17.08;59.83;99027.34;2086691;28;20584;-67
2024/01/12 00:30:10;;;;;;;;;;;;;;;17.11;59.80;99031.50;2086520;28;20487;-67
2024/01/12 00:31:10;;;;;;;;;;;;;;;17.08;59.96;99024.66;2088103;28;19932;-67
2024/01/12 00:32:12;;;;;;;;;;;;;;;17.04;60.03;99028.69;2079237;28;20760;-66
2024/01/12 00:33:13;;;;;;;;;;;;;;;17.05;59.92;99030.38;2082207;28;20397;-67
2024/01/12 00:34:15;;;;;;;;;;;;;;;17.06;60.02;99025.84;2086701;28;19936;-67
2024/01/12 00:35:15;;;;;;;;;;;;;;;17.03;59.74;99027.03;2084113;28;19929;-67
2024/01/12 00:36:17;;;;;;;;;;;;;;;17.03;60.00;99029.72;2088191;28;19971;-67
2024/01/12 00:37:18;;;;;;;;;;;;;;;17.01;59.90;99029.06;2085276;28;20353;-67
2024/01/12 00:38:19;;;;;;;;;;;;;;;17.02;59.77;99030.75;2088832;28;19936;-67
2024/01/12 00:39:20;;;;;;;;;;;;;;;16.99;59.93;99023.06;2084561;28;20465;-67
2024/01/12 00:40:21;;;;;;;;;;;;;;;16.98;59.71;99030.25;2088745;28;20015;-67
2024/01/12 00:41:22;;;;;;;;;;;;;;;17.00;59.91;99027.41;2088191;28;19928;-67
2024/01/12 00:42:24;;;;;;;;;;;;;;;16.95;60.14;99032.47;2086686;28;19981;-67
2024/01/12 00:43:25;;;;;;;;;;;;;;;16.92;60.12;99032.84;2085109;28;19989;-67
2024/01/12 00:44:28;;;;;;;;;;;;;;;16.90;59.92;99019.63;2083978;28;20346;-67
2024/01/12 00:45:28;;;;;;;;;;;;;;;16.90;59.93;99024.97;2086617;28;20026;-67
2024/01/12 00:46:30;;;;;;;;;;;;;;;16.93;60.04;99029.16;2082686;28;19983;-67
2024/01/12 00:47:31;;;;;;;;;;;;;;;16.88;59.90;99032.41;2083209;28;19928;-67
2024/01/12 00:48:32;;;;;;;;;;;;;;;16.85;60.24;99021.19;2086792;28;20109;-67
2024/01/12 00:49:33;;;;;;;;;;;;;;;16.85;60.25;99022.00;2086048;28;19975;-67
2024/01/12 00:50:34;;;;;;;;;;;;;;;16.87;60.14;99027.22;2087210;28;19929;-67
2024/01/12 00:51:35;;;;;;;;;;;;;;;16.85;60.15;99021.19;2084415;28;20394;-67
2024/01/12 00:52:36;;;;;;;;;;;;;;;16.83;60.09;99023.25;2085625;28;20015;-68
2024/01/12 00:53:37;;;;;;;;;;;;;;;16.84;60.16;99022.22;2086155;28;20834;-67
2024/01/12 00:54:38;;;;;;;;;;;;;;;16.79;60.32;99016.56;2082066;28;19962;-67
2024/01/12 00:55:40;;;;;;;;;;;;;;;16.79;60.38;99013.88;2082297;28;20017;-67
2024/01/12 00:56:41;;;;;;;;;;;;;;;16.76;60.26;99017.72;2082271;28;19940;-67
2024/01/12 00:57:42;;;;;;;;;;;;;;;16.74;60.25;99017.06;2083052;28;20650;-67
2024/01/12 00:58:43;;;;;;;;;;;;;;;16.74;60.23;99019.75;2088440;28;19955;-67
2024/01/12 00:59:46;;;;;;;;;;;;;;;16.72;60.36;99014.59;2087910;28;19924;-67
2024/01/12 01:00:47;;;;;;;;;;;;;;;16.71;60.35;99012.91;2088187;28;20351;-68
2024/01/12 01:01:48;;;;;;;;;;;;;;;16.69;60.33;99012.28;2088347;28;20016;-67
2024/01/12 01:02:49;;;;;;;;;;;;;;;16.69;60.27;99019.50;2087888;28;19925;-67
2024/01/12 01:03:50;;;;;;;;;;;;;;;16.67;60.29;99013.47;2087174;28;20603;-67
2024/01/12 01:04:51;;;;;;;;;;;;;;;16.65;60.36;99019.00;2084427;28;19959;-67
2024/01/12 01:05:53;;;;;;;;;;;;;;;16.64;60.42;99019.19;2084795;28;20533;-69
2024/01/12 01:06:53;;;;;;;;;;;;;;;16.63;60.46;99017.50;2087628;28;19944;-67
2024/01/12 01:07:55;;;;;;;;;;;;;;;16.60;60.29;99029.41;2083438;28;21807;-67
2024/01/12 01:08:56;;;;;;;;;;;;;;;16.58;60.49;99026.09;2087399;28;19936;-67
2024/01/12 01:09:58;;;;;;;;;;;;;;;16.59;60.54;99022.41;2086457;28;20515;-67
2024/01/12 01:10:59;;;;;;;;;;;;;;;16.59;60.34;99025.09;2085874;28;20372;-67
2024/01/12 01:12:00;;;;;;;;;;;;;;;16.57;60.53;99024.44;2086184;28;19939;-66
2024/01/12 01:13:01;;;;;;;;;;;;;;;16.55;60.57;99015.75;2086517;28;19933;-67
2024/01/12 01:14:02;;;;;;;;;;;;;;;16.53;60.59;99026.63;2086456;28;19964;-67
2024/01/12 01:15:06;;;;;;;;;;;;;;;16.52;60.47;99019.63;2086795;28;19933;-68
2024/01/12 01:16:08;;;;;;;;;;;;;;;16.47;60.74;99026.53;2083258;28;19936;-67
2024/01/12 01:17:09;;;;;;;;;;;;;;;16.48;60.67;99017.47;2084053;28;20727;-67
2024/01/12 01:18:11;;;;;;;;;;;;;;;16.46;60.54;99022.19;2089540;28;20015;-68
2024/01/12 01:19:12;;;;;;;;;;;;;;;16.46;60.71;99032.88;2086246;28;19986;-67
2024/01/12 01:20:14;;;;;;;;;;;;;;;16.43;60.65;99027.91;2085800;28;19943;-67
2024/01/12 01:21:16;;;;;;;;;;;;;;;16.42;60.67;99028.91;2085849;28;19928;-67
2024/01/12 01:22:17;;;;;;;;;;;;;;;16.42;60.55;99023.56;2085401;28;20409;-67
2024/01/12 01:23:20;;;;;;;;;;;;;;;16.43;60.68;99031.41;2088673;28;20023;-67
2024/01/12 01:24:21;;;;;;;;;;;;;;;16.40;60.75;99028.25;2084118;28;19924;-67
2024/01/12 01:25:23;;;;;;;;;;;;;;;16.41;60.60;99036.13;2083050;28;19928;-67
2024/01/12 01:26:23;;;;;;;;;;;;;;;16.39;60.72;99038.13;2083438;28;20568;-67
2024/01/12 01:27:25;;;;;;;;;;;;;;;16.39;60.73;99034.63;2084842;28;19932;-67
2024/01/12 01:28:26;;;;;;;;;;;;;;;16.39;60.69;99032.78;2088367;28;19933;-67
2024/01/12 01:29:26;;;;;;;;;;;;;;;16.38;60.62;99033.81;2085352;28;19925;-67
2024/01/12 01:30:29;;;;;;;;;;;;;;;16.38;60.53;99038.31;2086844;28;20116;-67
2024/01/12 01:31:30;;;;;;;;;;;;;;;16.39;60.55;99037.31;2085777;28;20392;-67
2024/01/12 01:32:32;;;;;;;;;;;;;;;16.38;60.65;99038.31;2086351;28;19976;-68
2024/01/12 01:33:32;;;;;;;;;;;;;;;16.36;60.65;99037.69;2089739;28;20329;-67
2024/01/12 01:34:34;;;;;;;;;;;;;;;16.34;60.60;99040.53;2091080;28;19963;-67
2024/01/12 01:35:35;;;;;;;;;;;;;;;16.33;60.72;99035.34;2087582;28;19928;-67
2024/01/12 01:36:36;;;;;;;;;;;;;;;16.33;60.72;99043.38;2089233;28;20014;-67
2024/01/12 01:37:37;;;;;;;;;;;;;;;16.33;60.72;99035.34;2090191;28;20691;-67
2024/01/12 01:38:39;;;;;;;;;;;;;;;16.32;60.74;99031.81;2089582;28;20011;-67
2024/01/12 01:39:39;;;;;;;;;;;;;;;16.33;60.61;99038.03;2088244;28;19928;-67
2024/01/12 01:40:42;;;;;;;;;;;;;;;16.31;60.62;99036.34;2090107;28;20397;-67
2024/01/12 01:41:43;;;;;;;;;;;;;;;16.31;60.57;99035.53;2081221;28;19936;-67
2024/01/12 01:42:46;;;;;;;;;;;;;;;16.30;60.55;99034.69;2085538;28;19935;-67
2024/01/12 01:43:47;;;;;;;;;;;;;;;16.30;60.49;99039.22;2085628;28;19932;-67
2024/01/12 01:44:48;;;;;;;;;;;;;;;16.27;60.61;99037.75;2084859;28;19929;-67
2024/01/12 01:45:51;;;;;;;;;;;;;;;16.29;60.52;99033.00;2085347;28;19980;-67
2024/01/12 01:46:51;;;;;;;;;;;;;;;16.27;60.66;99034.22;2087726;28;19972;-67
2024/01/12 01:47:52;;;;;;;;;;;;;;;16.25;60.58;99034.41;2084587;28;19967;-67
2024/01/12 01:48:54;;;;;;;;;;;;;;;16.28;60.66;99034.03;2087179;28;19933;-67
2024/01/12 01:49:55;;;;;;;;;;;;;;;16.24;60.59;99027.38;2083171;28;19939;-67
2024/01/12 01:50:57;;;;;;;;;;;;;;;16.25;60.61;99030.88;2090275;28;20387;-67
2024/01/12 01:51:57;;;;;;;;;;;;;;;16.20;60.59;99020.72;2091071;28;19931;-67
2024/01/12 01:52:59;;;;;;;;;;;;;;;16.21;60.56;99029.56;2088421;28;20015;-67
2024/01/12 01:54:00;;;;;;;;;;;;;;;16.21;60.55;99030.41;2090782;28;19928;-67
2024/01/12 01:55:01;;;;;;;;;;;;;;;16.23;60.64;99035.59;2084523;28;20976;-67
2024/01/12 01:56:03;;;;;;;;;;;;;;;16.19;60.71;99032.44;2086146;28;20152;-67
2024/01/12 01:57:05;;;;;;;;;;;;;;;16.20;60.56;99041.28;2088841;28;20446;-67
2024/01/12 01:58:06;;;;;;;;;;;;;;;16.16;60.77;99032.78;2086385;28;19936;-67
2024/01/12 01:59:08;;;;;;;;;;;;;;;16.16;60.52;99032.78;2088693;28;19928;-67
2024/01/12 02:00:10;;;;;;;;;;;;;;;16.15;60.66;99028.44;2087308;28;20430;-67
2024/01/12 02:01:13;;;;;;;;;;;;;;;16.16;60.44;99038.16;2077820;28;19933;-67
2024/01/12 02:02:14;;;;;;;;;;;;;;;16.16;60.53;99030.13;2083014;28;19936;-67
2024/01/12 02:03:16;;;;;;;;;;;;;;;16.15;60.49;99038.31;2089884;28;20533;-67
2024/01/12 02:04:16;;;;;;;;;;;;;;;16.12;60.51;99030.66;2087150;28;19929;-67
2024/01/12 02:05:21;;;;;;;;;;;;;;;16.12;60.53;99031.47;2091850;28;19971;-68
2024/01/12 02:06:21;;;;;;;;;;;;;;;16.09;60.79;99035.34;2090566;28;19928;-67
2024/01/12 02:07:22;;;;;;;;;;;;;;;16.12;60.75;99044.84;2087800;28;20394;-67
2024/01/12 02:08:24;;;;;;;;;;;;;;;16.08;60.76;99036.34;2080130;28;20353;-66
2024/01/12 02:09:25;;;;;;;;;;;;;;;16.09;60.60;99037.19;2084904;28;19932;-67
2024/01/12 02:10:26;;;;;;;;;;;;;;;16.07;60.66;99033.84;2085865;28;19932;-69
2024/01/12 02:11:27;;;;;;;;;;;;;;;16.08;60.58;99038.19;2086221;28;19937;-67
2024/01/12 02:12:29;;;;;;;;;;;;;;;16.07;60.54;99037.38;2083334;28;20022;-68
2024/01/12 02:13:29;;;;;;;;;;;;;;;16.08;60.44;99035.53;2083148;28;20413;-67
2024/01/12 02:14:30;;;;;;;;;;;;;;;16.08;60.60;99032.84;2085939;28;19960;-67
2024/01/12 02:15:32;;;;;;;;;;;;;;;16.05;60.67;99035.88;2086968;28;19931;-68
2024/01/12 02:16:34;;;;;;;;;;;;;;;16.03;60.67;99033.38;2081537;28;19932;-67
2024/01/12 02:17:36;;;;;;;;;;;;;;;16.01;60.69;99040.72;2086964;28;19940;-67
2024/01/12 02:18:37;;;;;;;;;;;;;;;16.02;60.70;99041.59;2083358;28;19939;-68
2024/01/12 02:19:38;;;;;;;;;;;;;;;16.02;60.76;99038.91;2085699;28;20576;-67
2024/01/12 02:20:39;;;;;;;;;;;;;;;16.03;60.67;99043.25;2085646;28;19933;-67
2024/01/12 02:21:42;;;;;;;;;;;;;;;15.98;60.74;99038.41;2084775;28;19928;-67
2024/01/12 02:22:43;;;;;;;;;;;;;;;15.98;60.67;99040.25;2082981;28;20285;-67
2024/01/12 02:23:43;;;;;;;;;;;;;;;15.98;60.53;99030.38;2085530;28;19990;-67
2024/01/12 02:24:45;;;;;;;;;;;;;;;15.97;60.74;99033.25;2086233;28;19929;-68
2024/01/12 02:25:46;;;;;;;;;;;;;;;15.95;60.75;99030.75;2080969;28;19968;-67
2024/01/12 02:26:47;;;;;;;;;;;;;;;15.95;60.67;99038.78;2085877;28;20362;-67
2024/01/12 02:27:48;;;;;;;;;;;;;;;15.94;60.71;99038.97;2084273;28;19925;-67
2024/01/12 02:28:50;;;;;;;;;;;;;;;15.95;60.60;99040.63;2087371;28;20042;-67
2024/01/12 02:29:51;;;;;;;;;;;;;;;15.96;60.69;99034.25;2084609;28;19935;-67
2024/01/12 02:30:53;;;;;;;;;;;;;;;15.91;60.69;99034.78;2082890;28;19924;-67
2024/01/12 02:31:54;;;;;;;;;;;;;;;15.93;60.71;99031.94;2083144;28;20483;-67
2024/01/12 02:32:56;;;;;;;;;;;;;;;15.91;60.73;99033.94;2085730;28;19935;-67
2024/01/12 02:33:56;;;;;;;;;;;;;;;15.89;60.74;99026.09;2085991;28;19932;-67
2024/01/12 02:34:58;;;;;;;;;;;;;;;15.89;60.73;99027.97;2080810;28;20028;-67
2024/01/12 02:35:59;;;;;;;;;;;;;;;15.86;60.76;99027.28;2082681;28;19933;-67
2024/01/12 02:37:02;;;;;;;;;;;;;;;15.85;60.82;99030.97;2083779;28;20031;-67
2024/01/12 02:38:02;;;;;;;;;;;;;;;15.82;60.88;99023.31;2083373;28;19940;-67
2024/01/12 02:39:05;;;;;;;;;;;;;;;15.86;60.73;99023.78;2086646;28;20015;-66
2024/01/12 02:40:06;;;;;;;;;;;;;;;15.83;60.71;99022.28;2082432;28;19933;-67
2024/01/12 02:41:08;;;;;;;;;;;;;;;15.82;60.73;99019.78;2084051;28;19933;-67
2024/01/12 02:42:09;;;;;;;;;;;;;;;15.80;60.58;99022.66;2084271;28;20418;-67
2024/01/12 02:43:10;;;;;;;;;;;;;;;15.75;60.86;99022.34;2083598;28;20035;-67
2024/01/12 02:44:11;;;;;;;;;;;;;;;15.79;60.76;99020.97;2087998;28;19936;-67
2024/01/12 02:45:13;;;;;;;;;;;;;;;15.81;60.71;99024.31;2089866;28;20007;-67
2024/01/12 02:46:13;;;;;;;;;;;;;;;15.77;60.83;99017.66;2085600;28;20784;-67
2024/01/12 02:47:15;;;;;;;;;;;;;;;15.79;60.75;99020.13;2086451;28;20438;-67
2024/01/12 02:48:16;;;;;;;;;;;;;;;15.78;60.76;99019.31;2080701;28;19928;-68
2024/01/12 02:49:17;;;;;;;;;;;;;;;15.74;60.80;99018.00;2084499;28;20566;-67
2024/01/12 02:50:18;;;;;;;;;;;;;;;15.74;60.88;99017.16;2082611;28;19928;-67
2024/01/12 02:51:20;;;;;;;;;;;;;;;15.69;61.03;99020.38;2084648;28;19933;-66
2024/01/12 02:52:22;;;;;;;;;;;;;;;15.69;61.08;99019.53;2085747;28;20793;-67
2024/01/12 02:53:23;;;;;;;;;;;;;;;15.69;60.92;99012.34;2081740;28;19932;-68
2024/01/12 02:54:24;;;;;;;;;;;;;;;15.65;61.08;99009.13;2082001;28;19932;-66
2024/01/12 02:55:26;;;;;;;;;;;;;;;15.67;61.05;99006.31;2082001;28;19967;-67
2024/01/12 02:56:27;;;;;;;;;;;;;;;15.68;61.06;99007.13;2083112;28;19940;-67
2024/01/12 02:57:28;;;;;;;;;;;;;;;15.69;60.96;99008.84;2085003;28;19988;-67
2024/01/12 02:58:29;;;;;;;;;;;;;;;15.65;61.09;99006.47;2084448;28;20393;-67
2024/01/12 02:59:31;;;;;;;;;;;;;;;15.67;61.00;99000.13;2082835;28;20010;-67
2024/01/12 03:00:31;;;;;;;;;;;;;;;15.69;60.93;99004.31;2084325;28;20296;-67
2024/01/12 03:01:34;;;;;;;;;;;;;;;15.64;61.02;98995.97;2081496;28;20031;-67
2024/01/12 03:02:35;;;;;;;;;;;;;;;15.60;61.04;98999.97;2084194;28;19932;-67
2024/01/12 03:03:36;;;;;;;;;;;;;;;15.62;61.06;98998.81;2083966;28;20306;-67
2024/01/12 03:04:37;;;;;;;;;;;;;;;15.60;60.99;98997.31;2081672;28;19928;-67
2024/01/12 03:05:38;;;;;;;;;;;;;;;15.65;60.89;98994.94;2084682;28;20011;-67
2024/01/12 03:06:39;;;;;;;;;;;;;;;15.64;60.94;98991.44;2085100;28;20075;-67
2024/01/12 03:07:42;;;;;;;;;;;;;;;15.58;60.92;98997.50;2088281;28;21370;-67
2024/01/12 03:08:42;;;;;;;;;;;;;;;15.59;60.99;98995.66;2084853;28;19940;-67
2024/01/12 03:09:44;;;;;;;;;;;;;;;15.56;61.01;98993.31;2087342;28;20501;-67
2024/01/12 03:10:45;;;;;;;;;;;;;;;15.53;61.13;98991.00;2083713;28;19949;-67
2024/01/12 03:11:46;;;;;;;;;;;;;;;15.55;61.05;98989.00;2085785;28;20319;-67
2024/01/12 03:12:47;;;;;;;;;;;;;;;15.53;61.04;98986.50;2082037;28;20311;-66
2024/01/12 03:13:49;;;;;;;;;;;;;;;15.49;61.11;99001.22;2087774;28;20015;-67
2024/01/12 03:14:49;;;;;;;;;;;;;;;15.55;61.10;98997.03;2084415;28;20503;-67
2024/01/12 03:15:50;;;;;;;;;;;;;;;15.52;61.08;98992.03;2085013;28;19964;-66
2024/01/12 03:16:51;;;;;;;;;;;;;;;15.55;60.96;98999.69;2072017;28;19932;-68
2024/01/12 03:17:52;;;;;;;;;;;;;;;15.50;61.07;98994.88;2081315;28;20406;-67
2024/01/12 03:18:54;;;;;;;;;;;;;;;15.52;60.96;98998.19;2083988;28;20064;-67
2024/01/12 03:19:54;;;;;;;;;;;;;;;15.50;61.12;98988.69;2084228;28;19924;-67
2024/01/12 03:20:57;;;;;;;;;;;;;;;15.49;61.12;98989.69;2087835;28;20011;-67
2024/01/12 03:21:57;;;;;;;;;;;;;;;15.49;61.16;98992.34;2084252;28;19929;-67
2024/01/12 03:22:59;;;;;;;;;;;;;;;15.49;61.11;98997.69;2084908;28;19982;-67
2024/01/12 03:24:01;;;;;;;;;;;;;;;15.49;61.08;98989.69;2084400;28;20010;-67
2024/01/12 03:25:02;;;;;;;;;;;;;;;15.51;61.00;98990.34;2086667;28;19936;-67
2024/01/12 03:26:03;;;;;;;;;;;;;;;15.49;60.98;98995.03;2081620;28;21418;-67
2024/01/12 03:27:05;;;;;;;;;;;;;;;15.46;61.01;98987.34;2082702;28;20660;-67
2024/01/12 03:28:05;;;;;;;;;;;;;;;15.48;61.06;98994.19;2079704;28;20339;-66
2024/01/12 03:29:07;;;;;;;;;;;;;;;15.45;60.99;98991.03;2083498;28;20023;-67
2024/01/12 03:30:08;;;;;;;;;;;;;;;15.38;61.12;98994.41;2084942;28;19932;-67
2024/01/12 03:31:10;;;;;;;;;;;;;;;15.39;61.18;98998.75;2084493;28;20014;-67
2024/01/12 03:32:10;;;;;;;;;;;;;;;15.40;61.03;98994.22;2084005;28;20300;-67
2024/01/12 03:33:12;;;;;;;;;;;;;;;15.42;60.98;98990.38;2083881;28;20063;-67
2024/01/12 03:34:12;;;;;;;;;;;;;;;15.45;60.96;98996.41;2084571;28;20010;-67
2024/01/12 03:35:14;;;;;;;;;;;;;;;15.46;61.00;98998.91;2085114;28;19987;-67
2024/01/12 03:36:15;;;;;;;;;;;;;;;15.45;61.06;98991.03;2080578;28;19925;-67
2024/01/12 03:37:16;;;;;;;;;;;;;;;15.42;60.83;98992.22;2085369;28;20027;-67
2024/01/12 03:38:19;;;;;;;;;;;;;;;15.38;61.02;98990.91;2083793;28;19968;-67
2024/01/12 03:39:19;;;;;;;;;;;;;;;15.36;61.25;98992.94;2084116;28;19932;-67
2024/01/12 03:40:21;;;;;;;;;;;;;;;15.35;61.08;98992.09;2082989;28;20048;-67
2024/01/12 03:41:21;;;;;;;;;;;;;;;15.32;61.07;98986.25;2084551;28;20565;-67
2024/01/12 03:42:22;;;;;;;;;;;;;;;15.37;61.10;98987.38;2084942;28;19932;-67
2024/01/12 03:43:24;;;;;;;;;;;;;;;15.37;60.96;98992.72;2080459;28;20002;-67
2024/01/12 03:44:24;;;;;;;;;;;;;;;15.37;61.14;98992.72;2082933;28;19939;-67
2024/01/12 03:45:26;;;;;;;;;;;;;;;15.40;60.88;98995.06;2084963;28;19967;-67
2024/01/12 03:46:27;;;;;;;;;;;;;;;15.36;60.95;98995.59;2088089;28;20004;-67
2024/01/12 03:47:27;;;;;;;;;;;;;;;15.33;60.98;98978.06;2085910;28;19948;-67
2024/01/12 03:48:29;;;;;;;;;;;;;;;15.37;61.01;98987.38;2087271;28;20321;-67
2024/01/12 03:49:29;;;;;;;;;;;;;;;15.36;60.93;98988.41;2083767;28;20461;-67
2024/01/12 03:50:31;;;;;;;;;;;;;;;15.39;60.93;98988.06;2083014;28;20024;-67
2024/01/12 03:51:32;;;;;;;;;;;;;;;15.45;60.75;98985.69;2086505;28;19939;-66
2024/01/12 03:52:33;;;;;;;;;;;;;;;15.52;60.57;98982.16;2085479;28;20506;-67
2024/01/12 03:53:36;;;;;;;;;;;;;;;15.58;60.37;98980.63;2084442;28;20311;-67
2024/01/12 03:54:37;;;;;;;;;;;;;;;15.62;60.17;98982.75;2083221;28;19966;-67
2024/01/12 03:55:38;;;;;;;;;;;;;;;15.63;60.20;98967.56;2081299;28;20292;-67
2024/01/12 03:56:39;;;;;;;;;;;;;;;15.70;60.05;98978.41;2083938;28;19962;-67
2024/01/12 03:57:40;;;;;;;;;;;;;;;15.73;60.04;98970.88;2084266;28;19954;-67
2024/01/12 03:58:41;;;;;;;;;;;;;;;15.75;59.96;98984.91;2081991;28;20023;-67
2024/01/12 03:59:42;;;;;;;;;;;;;;;15.77;59.97;98985.56;2085699;28;19929;-67
2024/01/12 04:00:44;;;;;;;;;;;;;;;15.78;59.75;98978.38;2086167;28;19925;-67
2024/01/12 04:01:45;;;;;;;;;;;;;;;15.81;59.71;98970.81;2086789;28;19936;-67
2024/01/12 04:02:46;;;;;;;;;;;;;;;15.82;59.78;98977.00;2085696;28;20359;-66
2024/01/12 04:03:47;;;;;;;;;;;;;;;15.83;59.71;98968.81;2091092;28;20319;-67
2024/01/12 04:04:47;;;;;;;;;;;;;;;15.85;59.68;98974.81;2084641;28;20031;-67
2024/01/12 04:05:49;;;;;;;;;;;;;;;15.86;59.68;98973.78;2088940;28;19932;-67
2024/01/12 04:06:49;;;;;;;;;;;;;;;15.88;59.74;98970.09;2086072;28;19929;-67
2024/01/12 04:07:51;;;;;;;;;;;;;;;15.87;59.68;98971.94;2086577;28;20011;-67
2024/01/12 04:08:53;;;;;;;;;;;;;;;15.88;59.66;98970.97;2087210;28;20183;-67
2024/01/12 04:09:54;;;;;;;;;;;;;;;15.90;59.65;98979.63;2086990;28;19982;-67
2024/01/12 04:10:56;;;;;;;;;;;;;;;15.89;59.65;98975.28;2083662;28;19940;-67
2024/01/12 04:11:56;;;;;;;;;;;;;;;15.91;59.66;98972.41;2083222;28;21983;-67
2024/01/12 04:12:58;;;;;;;;;;;;;;;15.91;59.57;98980.44;2084055;28;19932;-67
2024/01/12 04:13:58;;;;;;;;;;;;;;;15.91;59.69;98972.41;2088325;28;20844;-67
2024/01/12 04:15:00;;;;;;;;;;;;;;;15.93;59.59;98979.25;2086186;28;19967;-67
2024/01/12 04:16:01;;;;;;;;;;;;;;;15.92;59.62;98976.78;2088924;28;19929;-67
2024/01/12 04:17:01;;;;;;;;;;;;;;;15.93;59.63;98973.06;2086105;28;19928;-67
2024/01/12 04:18:03;;;;;;;;;;;;;;;15.92;59.61;98979.44;2087847;28;20035;-67
2024/01/12 04:19:04;;;;;;;;;;;;;;;15.91;59.55;98977.75;2084427;28;19928;-67
2024/01/12 04:20:05;;;;;;;;;;;;;;;15.92;59.59;98984.78;2086727;28;20413;-67
2024/01/12 04:21:06;;;;;;;;;;;;;;;15.91;59.69;98986.66;2090268;28;19925;-67
2024/01/12 04:22:07;;;;;;;;;;;;;;;15.93;59.54;98978.44;2089301;28;20428;-68
2024/01/12 04:23:08;;;;;;;;;;;;;;;15.93;59.70;98986.44;2088783;28;20009;-67
2024/01/12 04:24:10;;;;;;;;;;;;;;;15.93;59.63;98991.81;2087692;28;19929;-67
2024/01/12 04:25:12;;;;;;;;;;;;;;;15.94;59.54;98988.13;2082818;28;19929;-67
2024/01/12 04:26:12;;;;;;;;;;;;;;;15.93;59.68;98994.47;2086227;28;19955;-67
2024/01/12 04:27:14;;;;;;;;;;;;;;;15.91;59.71;98989.31;2083523;28;20031;-67
2024/01/12 04:28:15;;;;;;;;;;;;;;;15.92;59.58;98992.81;2084946;28;19939;-67
2024/01/12 04:29:16;;;;;;;;;;;;;;;15.91;59.62;98992.00;2086951;28;19975;-67
2024/01/12 04:30:17;;;;;;;;;;;;;;;15.92;59.65;98998.19;2085451;28;19932;-67
2024/01/12 04:31:18;;;;;;;;;;;;;;;15.91;59.55;98997.34;2089857;28;19967;-67
2024/01/12 04:32:19;;;;;;;;;;;;;;;15.90;59.57;98997.50;2083829;28;19932;-67
2024/01/12 04:33:21;;;;;;;;;;;;;;;15.89;59.66;99002.03;2088770;28;19964;-67
2024/01/12 04:34:21;;;;;;;;;;;;;;;15.91;59.66;98996.50;2085839;28;19932;-67
2024/01/12 04:35:23;;;;;;;;;;;;;;;15.92;59.62;99006.19;2084107;28;20024;-67
2024/01/12 04:36:24;;;;;;;;;;;;;;;15.92;59.63;99003.53;2086131;28;19932;-67
2024/01/12 04:37:25;;;;;;;;;;;;;;;15.90;59.63;99002.84;2085679;28;19928;-67
2024/01/12 04:38:28;;;;;;;;;;;;;;;15.90;59.65;99006.38;2087568;28;20535;-67
2024/01/12 04:39:30;;;;;;;;;;;;;;;15.90;59.58;99000.19;2086965;28;19928;-67
2024/01/12 04:40:31;;;;;;;;;;;;;;;15.90;59.62;99003.69;2087045;28;19983;-67
2024/01/12 04:41:32;;;;;;;;;;;;;;;15.90;59.62;99005.53;2086317;28;19933;-66
2024/01/12 04:42:34;;;;;;;;;;;;;;;15.87;59.78;99004.03;2083439;28;19975;-67
2024/01/12 04:43:34;;;;;;;;;;;;;;;15.85;59.73;99012.25;2088064;28;19928;-67
2024/01/12 04:44:36;;;;;;;;;;;;;;;15.86;59.78;99013.09;2086175;28;20011;-67
2024/01/12 04:45:36;;;;;;;;;;;;;;;15.88;59.69;99020.91;2084451;28;19928;-67
2024/01/12 04:46:38;;;;;;;;;;;;;;;15.88;59.59;99018.25;2084843;28;19966;-67
2024/01/12 04:47:39;;;;;;;;;;;;;;;15.86;59.62;99021.94;2086115;28;19936;-67
2024/01/12 04:48:40;;;;;;;;;;;;;;;15.86;59.67;99021.94;2088065;28;20019;-67
2024/01/12 04:49:41;;;;;;;;;;;;;;;15.84;59.70;99013.25;2085813;28;19933;-67
2024/01/12 04:50:42;;;;;;;;;;;;;;;15.84;59.59;99017.78;2087245;28;20015;-67
2024/01/12 04:51:43;;;;;;;;;;;;;;;15.81;59.72;99021.63;2088812;28;20521;-67
2024/01/12 04:52:45;;;;;;;;;;;;;;;15.84;59.71;99023.94;2086565;28;19928;-67
2024/01/12 04:53:45;;;;;;;;;;;;;;;15.80;59.74;99017.31;2089062;28;20027;-67
2024/01/12 04:54:48;;;;;;;;;;;;;;;15.81;59.70;99005.59;2085507;28;19928;-67
2024/01/12 04:55:49;;;;;;;;;;;;;;;15.81;59.70;99012.78;2083772;28;19928;-67
2024/01/12 04:56:51;;;;;;;;;;;;;;;15.78;59.86;99013.97;2087647;28;20040;-67
2024/01/12 04:57:51;;;;;;;;;;;;;;;15.80;59.86;99003.09;2088836;28;21684;-67
2024/01/12 04:58:53;;;;;;;;;;;;;;;15.77;59.83;99012.31;2086194;28;20044;-67
2024/01/12 04:59:54;;;;;;;;;;;;;;;15.78;59.87;99013.97;2086511;28;19932;-67
2024/01/12 05:00:55;;;;;;;;;;;;;;;15.75;59.85;99011.66;2086583;28;19971;-67
2024/01/12 05:01:56;;;;;;;;;;;;;;;15.75;59.98;99019.66;2085917;28;21365;-67
2024/01/12 05:02:58;;;;;;;;;;;;;;;15.73;59.91;99013.66;2084657;28;20052;-67
2024/01/12 05:03:58;;;;;;;;;;;;;;;15.72;59.94;99014.66;2087838;28;19929;-67
2024/01/12 05:05:00;;;;;;;;;;;;;;;15.72;59.98;99017.34;2085224;28;20031;-67
2024/01/12 05:06:00;;;;;;;;;;;;;;;15.73;59.91;99013.66;2086855;28;19954;-67
2024/01/12 05:07:02;;;;;;;;;;;;;;;15.72;59.92;99020.03;2084829;28;19932;-67
2024/01/12 05:08:03;;;;;;;;;;;;;;;15.72;59.94;99013.84;2086981;28;19943;-67
2024/01/12 05:09:06;;;;;;;;;;;;;;;15.68;60.07;99018.69;2087469;28;20321;-67
2024/01/12 05:10:09;;;;;;;;;;;;;;;15.68;60.07;99024.03;2083998;28;20359;-67
2024/01/12 05:11:10;;;;;;;;;;;;;;;15.67;60.08;99030.38;2083155;28;20371;-67
2024/01/12 05:12:12;;;;;;;;;;;;;;;15.66;60.16;99028.72;2086447;28;20011;-67
2024/01/12 05:13:12;;;;;;;;;;;;;;;15.65;60.34;99029.72;2082396;28;20635;-67
2024/01/12 05:14:14;;;;;;;;;;;;;;;15.65;60.06;99032.38;2087579;28;20024;-67
2024/01/12 05:15:15;;;;;;;;;;;;;;;15.65;60.21;99040.41;2087205;28;19939;-67
2024/01/12 05:16:16;;;;;;;;;;;;;;;15.63;60.26;99039.75;2088131;28;20821;-67
2024/01/12 05:17:17;;;;;;;;;;;;;;;15.63;60.19;99045.94;2086895;28;19939;-67
2024/01/12 05:18:19;;;;;;;;;;;;;;;15.62;60.20;99040.75;2087315;28;19979;-67
2024/01/12 05:19:19;;;;;;;;;;;;;;;15.61;60.26;99049.78;2086610;28;20415;-67